sensor_id;sensor_type;location;lat;lon;timestamp;pressure;altitude;pressure_sealevel;temperature;humidity
10006;BME280;5042;42.626;23.382;2024-02-16T00:01:25;149879.03;;;3.12;100.00
10006;BME280;5042;42.626;23.382;2024-02-16T00:03:52;149893.25;;;3.18;100.00
10006;BME280;5042;42.626;23.382;2024-02-16T00:06:19;149894.53;;;3.18;100.00
10006;BME280;5042;42.626;23.382;2024-02-16T00:08:47;149884.19;;;3.14;100.00
10006;BME280;5042;42.626;23.382;2024-02-16T00:11:14;149879.03;;;3.12;100.00
10006;BME280;5042;42.626;23.382;2024-02-16T00:13:41;149890.66;;;3.17;100.00
10006;BME280;5042;42.626;23.382;2024-02-16T00:16:08;149908.69;;;3.24;100.00
10006;BME280;5042;42.626;23.382;2024-02-16T00:18:35;149919.03;;;3.28;100.00
10006;BME280;5042;42.626;23.382;2024-02-16T00:21:02;149915.13;;;3.27;100.00
10006;BME280;5042;42.626;23.382;2024-02-16T00:23:29;149912.56;;;3.26;100.00
10006;BME280;5042;42.626;23.382;2024-02-16T00:25:57;149885.47;;;3.15;100.00
10006;BME280;5042;42.626;23.382;2024-02-16T00:28:24;149859.72;;;3.05;100.00
10006;BME280;5042;42.626;23.382;2024-02-16T00:30:51;149868.72;;;3.08;100.00
10006;BME280;5042;42.626;23.382;2024-02-16T00:33:18;149895.81;;;3.19;100.00
10006;BME280;5042;42.626;23.382;2024-02-16T00:35:45;149882.91;;;3.14;100.00
10006;BME280;5042;42.626;23.382;2024-02-16T00:38:14;149895.81;;;3.19;100.00
10006;BME280;5042;42.626;23.382;2024-02-16T00:40:41;149908.69;;;3.24;100.00
10006;BME280;5042;42.626;23.382;2024-02-16T00:43:11;149868.72;;;3.08;100.00
10006;BME280;5042;42.626;23.382;2024-02-16T00:45:38;149909.97;;;3.25;100.00
10006;BME280;5042;42.626;23.382;2024-02-16T00:48:07;149931.91;;;3.33;100.00
10006;BME280;5042;42.626;23.382;2024-02-16T00:50:34;149889.38;;;3.16;100.00
10006;BME280;5042;42.626;23.382;2024-02-16T00:53:01;149857.09;;;3.04;100.00
10006;BME280;5042;42.626;23.382;2024-02-16T00:55:28;149805.56;;;2.83;100.00
10006;BME280;5042;42.626;23.382;2024-02-16T00:57:55;149800.41;;;2.81;100.00
10006;BME280;5042;42.626;23.382;2024-02-16T01:00:24;149770.75;;;2.69;100.00
10006;BME280;5042;42.626;23.382;2024-02-16T01:02:51;149832.63;;;2.94;100.00
10006;BME280;5042;42.626;23.382;2024-02-16T01:05:19;149818.44;;;2.88;100.00
10006;BME280;5042;42.626;23.382;2024-02-16T01:07:46;149808.13;;;2.84;100.00
10006;BME280;5042;42.626;23.382;2024-02-16T01:10:13;149801.69;;;2.82;100.00
10006;BME280;5042;42.626;23.382;2024-02-16T01:12:40;149784.91;;;2.75;100.00
10006;BME280;5042;42.626;23.382;2024-02-16T01:15:07;149787.53;;;2.76;100.00
10006;BME280;5042;42.626;23.382;2024-02-16T01:17:36;149769.47;;;2.69;100.00
10006;BME280;5042;42.626;23.382;2024-02-16T01:20:06;149793.97;;;2.79;100.00
10006;BME280;5042;42.626;23.382;2024-02-16T01:22:36;149766.88;;;2.68;100.00
10006;BME280;5042;42.626;23.382;2024-02-16T01:25:03;149761.75;;;2.66;100.00
10006;BME280;5042;42.626;23.382;2024-02-16T01:27:30;149717.91;;;2.48;100.00
10006;BME280;5042;42.626;23.382;2024-02-16T01:29:57;149730.78;;;2.53;100.00
10006;BME280;5042;42.626;23.382;2024-02-16T01:32:25;149689.56;;;2.37;100.00
10006;BME280;5042;42.626;23.382;2024-02-16T01:34:53;149631.63;;;2.14;100.00
10006;BME280;5042;42.626;23.382;2024-02-16T01:37:20;149583.94;;;1.95;100.00
10006;BME280;5042;42.626;23.382;2024-02-16T01:39:47;149560.75;;;1.86;100.00
10006;BME280;5042;42.626;23.382;2024-02-16T01:42:14;149573.63;;;1.91;100.00
10006;BME280;5042;42.626;23.382;2024-02-16T01:44:41;149622.56;;;2.10;100.00
10006;BME280;5042;42.626;23.382;2024-02-16T01:47:08;149650.94;;;2.22;100.00
10006;BME280;5042;42.626;23.382;2024-02-16T01:49:35;149618.75;;;2.09;100.00
10006;BME280;5042;42.626;23.382;2024-02-16T01:52:04;149634.16;;;2.15;100.00
10006;BME280;5042;42.626;23.382;2024-02-16T01:54:31;149653.47;;;2.23;100.00
10006;BME280;5042;42.626;23.382;2024-02-16T01:56:58;149650.94;;;2.22;100.00
10006;BME280;5042;42.626;23.382;2024-02-16T01:59:26;149656.09;;;2.24;100.00
10006;BME280;5042;42.626;23.382;2024-02-16T02:01:54;149661.25;;;2.26;100.00
10006;BME280;5042;42.626;23.382;2024-02-16T02:04:21;149685.72;;;2.36;100.00
10006;BME280;5042;42.626;23.382;2024-02-16T02:06:48;149671.53;;;2.30;100.00
10006;BME280;5042;42.626;23.382;2024-02-16T02:09:16;149610.97;;;2.06;100.00
10006;BME280;5042;42.626;23.382;2024-02-16T02:11:43;149617.41;;;2.08;100.00
10006;BME280;5042;42.626;23.382;2024-02-16T02:14:10;149643.22;;;2.19;100.00
10006;BME280;5042;42.626;23.382;2024-02-16T02:16:37;149648.38;;;2.21;100.00
10006;BME280;5042;42.626;23.382;2024-02-16T02:19:04;149592.94;;;1.99;100.00
10006;BME280;5042;42.626;23.382;2024-02-16T02:21:31;149622.56;;;2.10;100.00
10006;BME280;5042;42.626;23.382;2024-02-16T02:23:59;149594.22;;;1.99;100.00
10006;BME280;5042;42.626;23.382;2024-02-16T02:26:26;149609.69;;;2.05;100.00
10006;BME280;5042;42.626;23.382;2024-02-16T02:28:53;149636.78;;;2.16;100.00
10006;BME280;5042;42.626;23.382;2024-02-16T02:31:20;149625.19;;;2.11;100.00
10006;BME280;5042;42.626;23.382;2024-02-16T02:33:47;149630.28;;;2.13;100.00
10006;BME280;5042;42.626;23.382;2024-02-16T02:36:14;149630.28;;;2.13;100.00
10006;BME280;5042;42.626;23.382;2024-02-16T02:38:41;149658.66;;;2.25;100.00
10006;BME280;5042;42.626;23.382;2024-02-16T02:41:11;149656.09;;;2.24;100.00
10006;BME280;5042;42.626;23.382;2024-02-16T02:43:38;149643.22;;;2.19;100.00
10006;BME280;5042;42.626;23.382;2024-02-16T02:46:05;149636.78;;;2.16;100.00
10006;BME280;5042;42.626;23.382;2024-02-16T02:48:32;149638.06;;;2.17;100.00
10006;BME280;5042;42.626;23.382;2024-02-16T02:50:59;149687.00;;;2.36;100.00
10006;BME280;5042;42.626;23.382;2024-02-16T02:53:27;149662.53;;;2.26;100.00
10006;BME280;5042;42.626;23.382;2024-02-16T02:55:54;149649.66;;;2.21;100.00
10006;BME280;5042;42.626;23.382;2024-02-16T02:58:23;149677.94;;;2.32;100.00
10006;BME280;5042;42.626;23.382;2024-02-16T03:00:49;149648.38;;;2.21;100.00
10006;BME280;5042;42.626;23.382;2024-02-16T03:03:16;149623.84;;;2.11;100.00
10006;BME280;5042;42.626;23.382;2024-02-16T03:05:43;149627.72;;;2.12;100.00
10006;BME280;5042;42.626;23.382;2024-02-16T03:08:10;149616.13;;;2.08;100.00
10006;BME280;5042;42.626;23.382;2024-02-16T03:10:37;149632.88;;;2.15;100.00
10006;BME280;5042;42.626;23.382;2024-02-16T03:13:05;149610.97;;;2.06;100.00
10006;BME280;5042;42.626;23.382;2024-02-16T03:15:33;149621.28;;;2.10;100.00
10006;BME280;5042;42.626;23.382;2024-02-16T03:18:01;149647.03;;;2.20;100.00
10006;BME280;5042;42.626;23.382;2024-02-16T03:20:28;149645.75;;;2.20;100.00
10006;BME280;5042;42.626;23.382;2024-02-16T03:22:55;149643.22;;;2.19;100.00
10006;BME280;5042;42.626;23.382;2024-02-16T03:25:22;149591.66;;;1.98;100.00
10006;BME280;5042;42.626;23.382;2024-02-16T03:27:51;149560.75;;;1.86;100.00
10006;BME280;5042;42.626;23.382;2024-02-16T03:30:18;149578.78;;;1.93;100.00
10006;BME280;5042;42.626;23.382;2024-02-16T03:32:49;149560.75;;;1.86;100.00
10006;BME280;5042;42.626;23.382;2024-02-16T03:35:16;149540.13;;;1.78;100.00
10006;BME280;5042;42.626;23.382;2024-02-16T03:37:43;149537.56;;;1.77;100.00
10006;BME280;5042;42.626;23.382;2024-02-16T03:40:11;149546.56;;;1.80;100.00
10006;BME280;5042;42.626;23.382;2024-02-16T03:42:38;149553.06;;;1.83;100.00
10006;BME280;5042;42.626;23.382;2024-02-16T03:45:07;149591.66;;;1.98;100.00
10006;BME280;5042;42.626;23.382;2024-02-16T03:47:34;149596.81;;;2.00;100.00
10006;BME280;5042;42.626;23.382;2024-02-16T03:50:02;149608.41;;;2.05;100.00
10006;BME280;5042;42.626;23.382;2024-02-16T03:52:29;149620.00;;;2.09;100.00
10006;BME280;5042;42.626;23.382;2024-02-16T03:54:57;149630.28;;;2.13;100.00
10006;BME280;5042;42.626;23.382;2024-02-16T03:57:24;149662.53;;;2.26;100.00
10006;BME280;5042;42.626;23.382;2024-02-16T03:59:51;149592.94;;;1.99;100.00
10006;BME280;5042;42.626;23.382;2024-02-16T04:02:18;149617.41;;;2.08;100.00
10006;BME280;5042;42.626;23.382;2024-02-16T04:04:45;149614.84;;;2.07;100.00
10006;BME280;5042;42.626;23.382;2024-02-16T04:07:14;149602.00;;;2.02;100.00
10006;BME280;5042;42.626;23.382;2024-02-16T04:09:41;149617.41;;;2.08;100.00
10006;BME280;5042;42.626;23.382;2024-02-16T04:12:08;149650.94;;;2.22;100.00
10006;BME280;5042;42.626;23.382;2024-02-16T04:14:35;149641.88;;;2.18;100.00
10006;BME280;5042;42.626;23.382;2024-02-16T04:17:03;149607.16;;;2.04;100.00
10006;BME280;5042;42.626;23.382;2024-02-16T04:19:29;149598.09;;;2.01;100.00
10006;BME280;5042;42.626;23.382;2024-02-16T04:21:56;149581.34;;;1.94;100.00
10006;BME280;5042;42.626;23.382;2024-02-16T04:24:25;149568.47;;;1.89;100.00
10006;BME280;5042;42.626;23.382;2024-02-16T04:26:52;149607.16;;;2.04;100.00
10006;BME280;5042;42.626;23.382;2024-02-16T04:29:19;149612.25;;;2.06;100.00
10006;BME280;5042;42.626;23.382;2024-02-16T04:31:45;149589.13;;;1.97;100.00
10006;BME280;5042;42.626;23.382;2024-02-16T04:34:13;149478.34;;;1.53;100.00
10006;BME280;5042;42.626;23.382;2024-02-16T04:36:40;149523.44;;;1.71;100.00
10006;BME280;5042;42.626;23.382;2024-02-16T04:39:07;149517.00;;;1.68;100.00
10006;BME280;5042;42.626;23.382;2024-02-16T04:41:36;149506.69;;;1.64;100.00
10006;BME280;5042;42.626;23.382;2024-02-16T04:44:03;149540.13;;;1.78;100.00
10006;BME280;5042;42.626;23.382;2024-02-16T04:46:30;149514.38;;;1.67;100.00
10006;BME280;5042;42.626;23.382;2024-02-16T04:48:57;149517.00;;;1.68;100.00
10006;BME280;5042;42.626;23.382;2024-02-16T04:51:24;149504.06;;;1.63;100.00
10006;BME280;5042;42.626;23.382;2024-02-16T04:53:51;149517.00;;;1.68;100.00
10006;BME280;5042;42.626;23.382;2024-02-16T04:56:18;149518.28;;;1.69;100.00
10006;BME280;5042;42.626;23.382;2024-02-16T04:58:47;149527.25;;;1.73;100.00
10006;BME280;5042;42.626;23.382;2024-02-16T05:01:14;149540.13;;;1.78;100.00
10006;BME280;5042;42.626;23.382;2024-02-16T05:03:41;149519.56;;;1.69;100.00
10006;BME280;5042;42.626;23.382;2024-02-16T05:06:08;149447.44;;;1.41;100.00
10006;BME280;5042;42.626;23.382;2024-02-16T05:08:35;149416.56;;;1.29;100.00
10006;BME280;5042;42.626;23.382;2024-02-16T05:11:01;149430.69;;;1.34;100.00
10006;BME280;5042;42.626;23.382;2024-02-16T05:13:28;149448.72;;;1.41;100.00
10006;BME280;5042;42.626;23.382;2024-02-16T05:15:57;149423.00;;;1.31;100.00
10006;BME280;5042;42.626;23.382;2024-02-16T05:18:25;149403.69;;;1.23;100.00
10006;BME280;5042;42.626;23.382;2024-02-16T05:20:53;149423.00;;;1.31;100.00
10006;BME280;5042;42.626;23.382;2024-02-16T05:23:20;149439.75;;;1.38;100.00
10006;BME280;5042;42.626;23.382;2024-02-16T05:25:46;149401.09;;;1.22;100.00
10006;BME280;5042;42.626;23.382;2024-02-16T05:28:13;149404.97;;;1.24;100.00
10006;BME280;5042;42.626;23.382;2024-02-16T05:30:40;149348.31;;;1.01;100.00
10006;BME280;5042;42.626;23.382;2024-02-16T05:33:09;149357.34;;;1.05;100.00
10006;BME280;5042;42.626;23.382;2024-02-16T05:35:36;149367.59;;;1.09;100.00
10006;BME280;5042;42.626;23.382;2024-02-16T05:38:06;149372.75;;;1.11;100.00
10006;BME280;5042;42.626;23.382;2024-02-16T05:40:46;149359.91;;;1.06;100.00
10006;BME280;5042;42.626;23.382;2024-02-16T05:43:19;149372.75;;;1.11;100.00
10006;BME280;5042;42.626;23.382;2024-02-16T05:45:46;149395.94;;;1.20;100.00
10006;BME280;5042;42.626;23.382;2024-02-16T05:48:14;149390.78;;;1.18;100.00
10006;BME280;5042;42.626;23.382;2024-02-16T05:50:41;149390.78;;;1.18;100.00
10006;BME280;5042;42.626;23.382;2024-02-16T05:53:08;149367.59;;;1.09;100.00
10006;BME280;5042;42.626;23.382;2024-02-16T05:55:36;149343.16;;;0.99;100.00
10006;BME280;5042;42.626;23.382;2024-02-16T05:58:03;149358.63;;;1.05;100.00
10006;BME280;5042;42.626;23.382;2024-02-16T06:00:33;149358.63;;;1.05;100.00
10006;BME280;5042;42.626;23.382;2024-02-16T06:03:00;149383.06;;;1.15;100.00
10006;BME280;5042;42.626;23.382;2024-02-16T06:05:29;149370.22;;;1.10;100.00
10006;BME280;5042;42.626;23.382;2024-02-16T06:07:56;149334.16;;;0.96;100.00
10006;BME280;5042;42.626;23.382;2024-02-16T06:10:24;149347.03;;;1.01;100.00
10006;BME280;5042;42.626;23.382;2024-02-16T06:12:51;149465.47;;;1.48;100.00
10006;BME280;5042;42.626;23.382;2024-02-16T06:15:18;149610.97;;;2.06;100.00
10006;BME280;5042;42.626;23.382;2024-02-16T06:17:45;149739.84;;;2.57;100.00
10006;BME280;5042;42.626;23.382;2024-02-16T06:20:12;149921.56;;;3.29;100.00
10006;BME280;5042;42.626;23.382;2024-02-16T06:22:41;150045.41;;;3.78;100.00
10006;BME280;5042;42.626;23.382;2024-02-16T06:25:08;150017.00;;;3.67;100.00
10006;BME280;5042;42.626;23.382;2024-02-16T06:27:35;150169.28;;;4.28;100.00
10006;BME280;5042;42.626;23.382;2024-02-16T06:30:03;150095.69;;;3.98;100.00
10006;BME280;5042;42.626;23.382;2024-02-16T06:32:30;150254.44;;;4.61;100.00
10006;BME280;5042;42.626;23.382;2024-02-16T06:34:57;150515.34;;;5.65;100.00
10006;BME280;5042;42.626;23.382;2024-02-16T06:37:24;150698.88;;;6.37;100.00
10006;BME280;5042;42.626;23.382;2024-02-16T06:39:52;150751.88;;;6.58;94.87
10006;BME280;5042;42.626;23.382;2024-02-16T06:42:19;150838.53;;;6.93;91.92
10006;BME280;5042;42.626;23.382;2024-02-16T06:44:46;150829.47;;;6.89;90.34
10006;BME280;5042;42.626;23.382;2024-02-16T06:47:13;150706.59;;;6.41;91.55
10006;BME280;5042;42.626;23.382;2024-02-16T06:49:40;150560.53;;;5.83;97.97
10006;BME280;5042;42.626;23.382;2024-02-16T06:52:07;150462.38;;;5.44;100.00
10006;BME280;5042;42.626;23.382;2024-02-16T06:54:35;150378.41;;;5.10;100.00
10006;BME280;5042;42.626;23.382;2024-02-16T06:57:03;150285.44;;;4.74;100.00
10006;BME280;5042;42.626;23.382;2024-02-16T06:59:31;150170.56;;;4.28;100.00
10006;BME280;5042;42.626;23.382;2024-02-16T07:01:58;150174.44;;;4.30;100.00
10006;BME280;5042;42.626;23.382;2024-02-16T07:04:24;150169.28;;;4.28;100.00
10006;BME280;5042;42.626;23.382;2024-02-16T07:06:51;150148.59;;;4.19;100.00
10006;BME280;5042;42.626;23.382;2024-02-16T07:09:18;150112.47;;;4.05;100.00
10006;BME280;5042;42.626;23.382;2024-02-16T07:11:47;150156.38;;;4.22;100.00
10006;BME280;5042;42.626;23.382;2024-02-16T07:14:17;150161.50;;;4.24;100.00
10006;BME280;5042;42.626;23.382;2024-02-16T07:16:44;150205.41;;;4.42;100.00
10006;BME280;5042;42.626;23.382;2024-02-16T07:19:10;150226.03;;;4.50;100.00
10006;BME280;5042;42.626;23.382;2024-02-16T07:21:38;150224.78;;;4.50;100.00
10006;BME280;5042;42.626;23.382;2024-02-16T07:24:05;150197.63;;;4.39;100.00
10006;BME280;5042;42.626;23.382;2024-02-16T07:26:34;150277.69;;;4.71;100.00
10006;BME280;5042;42.626;23.382;2024-02-16T07:29:01;150267.34;;;4.66;100.00
10006;BME280;5042;42.626;23.382;2024-02-16T07:31:32;150280.25;;;4.72;100.00
10006;BME280;5042;42.626;23.382;2024-02-16T07:33:59;150298.34;;;4.79;100.00
10006;BME280;5042;42.626;23.382;2024-02-16T07:36:27;150325.47;;;4.89;100.00
10006;BME280;5042;42.626;23.382;2024-02-16T07:38:53;150284.16;;;4.73;100.00
10006;BME280;5042;42.626;23.382;2024-02-16T07:41:20;150284.16;;;4.73;100.00
10006;BME280;5042;42.626;23.382;2024-02-16T07:43:47;150280.25;;;4.72;100.00
10006;BME280;5042;42.626;23.382;2024-02-16T07:46:14;150282.88;;;4.73;100.00
10006;BME280;5042;42.626;23.382;2024-02-16T07:48:43;150297.06;;;4.78;100.00
10006;BME280;5042;42.626;23.382;2024-02-16T07:51:10;150316.41;;;4.86;100.00
10006;BME280;5042;42.626;23.382;2024-02-16T07:53:37;150302.22;;;4.80;100.00
10006;BME280;5042;42.626;23.382;2024-02-16T07:56:06;150326.75;;;4.90;100.00
10006;BME280;5042;42.626;23.382;2024-02-16T07:58:33;150342.25;;;4.96;100.00
10006;BME280;5042;42.626;23.382;2024-02-16T08:01:00;150352.56;;;5.00;100.00
10006;BME280;5042;42.626;23.382;2024-02-16T08:03:28;150365.50;;;5.05;100.00
10006;BME280;5042;42.626;23.382;2024-02-16T08:05:56;150401.66;;;5.20;100.00
10006;BME280;5042;42.626;23.382;2024-02-16T08:08:23;150436.50;;;5.34;100.00
10006;BME280;5042;42.626;23.382;2024-02-16T08:10:51;150590.31;;;5.94;100.00
10006;BME280;5042;42.626;23.382;2024-02-16T08:13:18;150799.72;;;6.77;100.00
10006;BME280;5042;42.626;23.382;2024-02-16T08:15:46;151050.69;;;7.77;100.00
10006;BME280;5042;42.626;23.382;2024-02-16T08:18:13;151155.50;;;8.18;92.17
10006;BME280;5042;42.626;23.382;2024-02-16T08:20:39;151274.69;;;8.65;85.27
10006;BME280;5042;42.626;23.382;2024-02-16T08:23:08;151458.63;;;9.38;82.50
10006;BME280;5042;42.626;23.382;2024-02-16T08:25:35;151733.50;;;10.47;78.52
10006;BME280;5042;42.626;23.382;2024-02-16T08:28:02;151703.69;;;10.35;68.66
10006;BME280;5042;42.626;23.382;2024-02-16T08:30:29;151747.75;;;10.52;70.21
10006;BME280;5042;42.626;23.382;2024-02-16T08:32:56;151852.78;;;10.94;66.78
10006;BME280;5042;42.626;23.382;2024-02-16T08:35:23;151883.97;;;11.06;65.15
10006;BME280;5042;42.626;23.382;2024-02-16T08:37:50;151985.19;;;11.46;65.80
10006;BME280;5042;42.626;23.382;2024-02-16T08:40:19;152055.25;;;11.74;61.96
10006;BME280;5042;42.626;23.382;2024-02-16T08:42:45;152225.38;;;12.41;63.83
10006;BME280;5042;42.626;23.382;2024-02-16T08:45:12;152339.69;;;12.86;57.72
10006;BME280;5042;42.626;23.382;2024-02-16T08:47:42;152469.69;;;13.37;55.97
10006;BME280;5042;42.626;23.382;2024-02-16T08:50:09;152355.28;;;12.92;57.35
10006;BME280;5042;42.626;23.382;2024-02-16T08:52:37;152398.16;;;13.09;54.74
10006;BME280;5042;42.626;23.382;2024-02-16T08:55:04;152283.81;;;12.64;55.85
10006;BME280;5042;42.626;23.382;2024-02-16T08:57:33;152290.31;;;12.66;56.27
10006;BME280;5042;42.626;23.382;2024-02-16T08:59:59;152200.69;;;12.31;57.13
10006;BME280;5042;42.626;23.382;2024-02-16T09:02:26;152165.69;;;12.17;58.73
10006;BME280;5042;42.626;23.382;2024-02-16T09:04:53;152047.47;;;11.71;57.32
10006;BME280;5042;42.626;23.382;2024-02-16T09:07:20;152087.72;;;11.86;57.44
10006;BME280;5042;42.626;23.382;2024-02-16T09:09:48;152181.22;;;12.23;57.38
10006;BME280;5042;42.626;23.382;2024-02-16T09:12:15;152163.06;;;12.16;56.34
10006;BME280;5042;42.626;23.382;2024-02-16T09:14:43;152157.84;;;12.14;56.30
10006;BME280;5042;42.626;23.382;2024-02-16T09:17:10;152159.13;;;12.15;56.03
10006;BME280;5042;42.626;23.382;2024-02-16T09:19:38;152221.50;;;12.39;58.39
10006;BME280;5042;42.626;23.382;2024-02-16T09:22:05;152221.50;;;12.39;56.16
10006;BME280;5042;42.626;23.382;2024-02-16T09:24:32;152159.13;;;12.15;56.02
10006;BME280;5042;42.626;23.382;2024-02-16T09:27:00;152066.94;;;11.78;55.49
10006;BME280;5042;42.626;23.382;2024-02-16T09:29:29;151915.09;;;11.18;58.19
10006;BME280;5042;42.626;23.382;2024-02-16T09:31:58;151895.66;;;11.11;59.58
10006;BME280;5042;42.626;23.382;2024-02-16T09:34:25;151873.59;;;11.02;58.85
10006;BME280;5042;42.626;23.382;2024-02-16T09:36:51;151921.59;;;11.21;61.06
10006;BME280;5042;42.626;23.382;2024-02-16T09:39:18;152002.03;;;11.53;60.48
10006;BME280;5042;42.626;23.382;2024-02-16T09:41:50;152124.13;;;12.01;59.70
10006;BME280;5042;42.626;23.382;2024-02-16T09:44:17;152090.34;;;11.87;57.80
10006;BME280;5042;42.626;23.382;2024-02-16T09:46:46;152086.38;;;11.86;59.02
10006;BME280;5042;42.626;23.382;2024-02-16T09:49:15;151960.50;;;11.36;58.21
10006;BME280;5042;42.626;23.382;2024-02-16T09:51:42;151908.63;;;11.16;60.43
10006;BME280;5042;42.626;23.382;2024-02-16T09:54:09;151867.09;;;10.99;60.54
10006;BME280;5042;42.626;23.382;2024-02-16T09:56:37;151778.88;;;10.65;63.08
10006;BME280;5042;42.626;23.382;2024-02-16T09:59:04;151658.22;;;10.17;61.33
10006;BME280;5042;42.626;23.382;2024-02-16T10:01:32;151633.59;;;10.07;61.45
10006;BME280;5042;42.626;23.382;2024-02-16T10:04:05;151500.09;;;9.54;64.73
10006;BME280;5042;42.626;23.382;2024-02-16T10:06:45;151487.16;;;9.49;65.07
10006;BME280;5042;42.626;23.382;2024-02-16T10:09:22;151452.16;;;9.36;67.41
10006;BME280;5042;42.626;23.382;2024-02-16T10:11:49;151461.22;;;9.39;65.89
10006;BME280;5042;42.626;23.382;2024-02-16T10:14:16;151483.25;;;9.48;73.33
10006;BME280;5042;42.626;23.382;2024-02-16T10:16:44;151377.00;;;9.06;71.11
10006;BME280;5042;42.626;23.382;2024-02-16T10:19:11;151392.56;;;9.12;72.33
10006;BME280;5042;42.626;23.382;2024-02-16T10:21:41;151384.81;;;9.09;73.47
10006;BME280;5042;42.626;23.382;2024-02-16T10:24:09;151392.56;;;9.12;73.86
10006;BME280;5042;42.626;23.382;2024-02-16T10:26:36;151375.72;;;9.05;70.27
10006;BME280;5042;42.626;23.382;2024-02-16T10:29:05;151303.19;;;8.77;70.54
10006;BME280;5042;42.626;23.382;2024-02-16T10:31:33;151397.75;;;9.14;68.69
10006;BME280;5042;42.626;23.382;2024-02-16T10:34:01;151379.63;;;9.07;71.04
10006;BME280;5042;42.626;23.382;2024-02-16T10:36:32;151402.94;;;9.16;71.93
10006;BME280;5042;42.626;23.382;2024-02-16T10:39:01;151361.47;;;9.00;68.68
10006;BME280;5042;42.626;23.382;2024-02-16T10:41:33;151413.28;;;9.20;73.18
10006;BME280;5042;42.626;23.382;2024-02-16T10:44:01;151423.66;;;9.24;70.71
10006;BME280;5042;42.626;23.382;2024-02-16T10:46:29;151379.63;;;9.07;70.39
10006;BME280;5042;42.626;23.382;2024-02-16T10:48:56;151410.69;;;9.19;68.95
10006;BME280;5042;42.626;23.382;2024-02-16T10:51:25;151402.94;;;9.16;72.13
10006;BME280;5042;42.626;23.382;2024-02-16T10:53:56;151303.19;;;8.77;69.46
10006;BME280;5042;42.626;23.382;2024-02-16T10:56:32;151397.75;;;9.14;70.81
10006;BME280;5042;42.626;23.382;2024-02-16T10:59:01;151412.00;;;9.20;72.91
10006;BME280;5042;42.626;23.382;2024-02-16T11:01:32;151418.47;;;9.22;72.81
10006;BME280;5042;42.626;23.382;2024-02-16T11:04:03;151406.78;;;9.18;71.08
10006;BME280;5042;42.626;23.382;2024-02-16T11:06:44;151352.41;;;8.96;68.81
10006;BME280;5042;42.626;23.382;2024-02-16T11:09:11;151470.31;;;9.43;68.45
10006;BME280;5042;42.626;23.382;2024-02-16T11:11:39;151378.34;;;9.06;67.59
10006;BME280;5042;42.626;23.382;2024-02-16T11:14:14;151501.41;;;9.55;73.94
10006;BME280;5042;42.626;23.382;2024-02-16T11:16:44;151503.97;;;9.56;68.95
10006;BME280;5042;42.626;23.382;2024-02-16T11:19:11;151519.53;;;9.62;67.76
10006;BME280;5042;42.626;23.382;2024-02-16T11:21:55;151474.16;;;9.44;69.06
10006;BME280;5042;42.626;23.382;2024-02-16T11:24:29;151450.88;;;9.35;68.35
10006;BME280;5042;42.626;23.382;2024-02-16T11:26:58;151419.75;;;9.23;72.02
10006;BME280;5042;42.626;23.382;2024-02-16T11:29:26;151392.56;;;9.12;70.96
10006;BME280;5042;42.626;23.382;2024-02-16T11:31:56;151410.69;;;9.19;70.21
10006;BME280;5042;42.626;23.382;2024-02-16T11:34:24;151423.66;;;9.24;71.06
10006;BME280;5042;42.626;23.382;2024-02-16T11:36:52;151430.13;;;9.27;71.76
10006;BME280;5042;42.626;23.382;2024-02-16T11:39:20;151304.47;;;8.77;68.96
10006;BME280;5042;42.626;23.382;2024-02-16T11:41:48;151441.78;;;9.31;70.27
10006;BME280;5042;42.626;23.382;2024-02-16T11:44:16;151475.50;;;9.45;70.91
10006;BME280;5042;42.626;23.382;2024-02-16T11:46:43;151480.69;;;9.47;73.26
10006;BME280;5042;42.626;23.382;2024-02-16T11:49:10;151478.06;;;9.46;68.85
10006;BME280;5042;42.626;23.382;2024-02-16T11:51:37;151506.59;;;9.57;67.22
10006;BME280;5042;42.626;23.382;2024-02-16T11:54:05;151516.97;;;9.61;67.02
10006;BME280;5042;42.626;23.382;2024-02-16T11:56:32;151518.25;;;9.62;70.21
10006;BME280;5042;42.626;23.382;2024-02-16T11:59:00;151537.69;;;9.69;69.86
10006;BME280;5042;42.626;23.382;2024-02-16T12:01:28;151568.78;;;9.82;68.75
10006;BME280;5042;42.626;23.382;2024-02-16T12:03:55;151581.72;;;9.87;68.56
10006;BME280;5042;42.626;23.382;2024-02-16T12:06:22;151571.41;;;9.83;65.86
10006;BME280;5042;42.626;23.382;2024-02-16T12:08:50;151584.34;;;9.88;66.31
10006;BME280;5042;42.626;23.382;2024-02-16T12:11:18;151579.16;;;9.86;67.88
10006;BME280;5042;42.626;23.382;2024-02-16T12:13:45;151579.16;;;9.86;69.22
10006;BME280;5042;42.626;23.382;2024-02-16T12:16:12;151596.03;;;9.92;69.87
10006;BME280;5042;42.626;23.382;2024-02-16T12:18:40;151571.41;;;9.83;73.24
10006;BME280;5042;42.626;23.382;2024-02-16T12:21:07;151590.84;;;9.90;71.09
10006;BME280;5042;42.626;23.382;2024-02-16T12:23:36;151537.69;;;9.69;67.67
10006;BME280;5042;42.626;23.382;2024-02-16T12:26:03;151549.34;;;9.74;67.66
10006;BME280;5042;42.626;23.382;2024-02-16T12:28:31;151553.25;;;9.75;67.32
10006;BME280;5042;42.626;23.382;2024-02-16T12:30:58;151563.59;;;9.80;68.93
10006;BME280;5042;42.626;23.382;2024-02-16T12:33:26;151533.78;;;9.68;66.65
10006;BME280;5042;42.626;23.382;2024-02-16T12:35:54;151561.00;;;9.79;67.98
10006;BME280;5042;42.626;23.382;2024-02-16T12:38:21;151572.69;;;9.83;67.41
10006;BME280;5042;42.626;23.382;2024-02-16T12:40:48;151549.34;;;9.74;67.29
10006;BME280;5042;42.626;23.382;2024-02-16T12:43:15;151588.22;;;9.89;66.45
10006;BME280;5042;42.626;23.382;2024-02-16T12:45:44;151603.78;;;9.95;67.41
10006;BME280;5042;42.626;23.382;2024-02-16T12:48:11;151631.03;;;10.06;66.49
10006;BME280;5042;42.626;23.382;2024-02-16T12:50:40;151505.31;;;9.57;64.85
10006;BME280;5042;42.626;23.382;2024-02-16T12:53:09;151658.22;;;10.17;64.61
10006;BME280;5042;42.626;23.382;2024-02-16T12:55:36;151684.16;;;10.27;64.36